Time;durP1;ratioP1;P1;durP2;ratioP2;P2;SDS_P1;SDS_P2;PMS_P1;PMS_P2;Temp;Humidity;BMP_temperature;BMP_pressure;BME280_temperature;BME280_humidity;BME280_pressure;Samples;Min_cycle;Max_cycle;Signal;HPM_P1;HPM_P2
2023/06/09 00:01:53;;;;;;;28.35;8.07;;;13.30;99.90;;;;;;5093822;28;20186;-81
2023/06/09 00:04:26;;;;;;;21.27;7.53;;;13.30;99.90;;;;;;5099849;28;20666;-83
2023/06/09 00:06:52;;;;;;;25.95;8.27;;;13.30;99.90;;;;;;5110676;28;20196;-83
2023/06/09 00:09:21;;;;;;;22.17;8.00;;;13.30;99.90;;;;;;5092375;28;20165;-81
2023/06/09 00:11:48;;;;;;;26.48;8.52;;;13.30;99.90;;;;;;5058689;28;20201;-81
2023/06/09 00:14:14;;;;;;;18.58;8.15;;;13.30;99.90;;;;;;5092082;28;20184;-81
2023/06/09 00:16:46;;;;;;;20.05;7.68;;;13.30;99.90;;;;;;5086389;28;20252;-82
2023/06/09 00:19:13;;;;;;;19.92;7.82;;;13.30;99.90;;;;;;5078927;28;20182;-81
2023/06/09 00:21:39;;;;;;;28.35;8.93;;;13.30;99.90;;;;;;5091885;28;20288;-81
2023/06/09 00:24:06;;;;;;;26.90;8.88;;;13.20;99.90;;;;;;5091483;28;20239;-81
2023/06/09 00:26:31;;;;;;;15.20;8.23;;;13.20;99.90;;;;;;5092881;28;20225;-81
2023/06/09 00:28:57;;;;;;;22.88;8.65;;;13.20;99.90;;;;;;5093005;28;20247;-81
2023/06/09 00:31:25;;;;;;;28.13;9.60;;;13.20;99.90;;;;;;5091459;28;20205;-83
2023/06/09 00:33:50;;;;;;;29.85;9.50;;;13.20;99.90;;;;;;5091850;28;20613;-81
2023/06/09 00:36:16;;;;;;;32.30;10.07;;;13.20;99.90;;;;;;5081721;28;20677;-81
2023/06/09 00:38:42;;;;;;;24.95;10.82;;;13.10;99.90;;;;;;5095165;28;20181;-80
2023/06/09 00:41:08;;;;;;;36.15;10.35;;;13.20;99.90;;;;;;5111875;28;20212;-81
2023/06/09 00:43:33;;;;;;;37.10;10.82;;;13.20;99.90;;;;;;5111877;28;20650;-81
2023/06/09 00:46:04;;;;;;;28.20;10.43;;;13.10;99.90;;;;;;5095004;28;20220;-82
2023/06/09 00:48:30;;;;;;;29.95;10.82;;;13.10;99.90;;;;;;5091751;28;20170;-81
2023/06/09 00:50:57;;;;;;;29.65;10.25;;;13.10;99.90;;;;;;5074932;28;20193;-81
2023/06/09 00:53:26;;;;;;;34.20;11.40;;;13.10;99.90;;;;;;5091630;28;20479;-81
2023/06/09 00:55:52;;;;;;;26.10;11.20;;;13.10;99.90;;;;;;5091577;28;20182;-81
2023/06/09 00:58:18;;;;;;;25.90;10.18;;;13.10;99.90;;;;;;5074777;28;20174;-81
2023/06/09 01:00:44;;;;;;;25.10;10.27;;;13.10;99.90;;;;;;5091060;28;20539;-80
2023/06/09 01:03:10;;;;;;;31.17;11.13;;;13.10;99.90;;;;;;5091438;28;20588;-80
2023/06/09 01:05:38;;;;;;;27.38;10.48;;;13.10;99.90;;;;;;5072057;28;20213;-80
2023/06/09 01:08:38;;;;;;;25.85;10.00;;;13.10;99.90;;;;;;5064029;28;20272;-80
2023/06/09 01:11:41;;;;;;;30.67;10.88;;;13.00;99.90;;;;;;5102448;28;20212;-81
2023/06/09 01:14:23;;;;;;;32.50;10.45;;;13.00;99.90;;;;;;5098975;28;20579;-81
2023/06/09 01:17:03;;;;;;;27.88;10.57;;;13.00;99.90;;;;;;5115667;28;20169;-81
2023/06/09 01:19:40;;;;;;;27.75;10.55;;;13.00;99.90;;;;;;5098534;28;20189;-81
2023/06/09 01:22:45;;;;;;;26.00;11.57;;;13.00;99.90;;;;;;5102235;28;20186;-81
2023/06/09 01:25:31;;;;;;;25.65;11.52;;;13.00;99.90;;;;;;5033211;28;20207;-81
2023/06/09 01:28:02;;;;;;;27.92;11.55;;;13.00;99.90;;;;;;5088959;28;20228;-81
2023/06/09 01:30:30;;;;;;;29.17;10.82;;;13.00;99.90;;;;;;5094554;28;20188;-81
2023/06/09 01:33:03;;;;;;;32.55;10.88;;;13.00;99.90;;;;;;5095585;28;20174;-80
2023/06/09 01:35:29;;;;;;;23.17;9.80;;;12.90;99.90;;;;;;5077520;28;20189;-80
2023/06/09 01:37:56;;;;;;;29.08;10.50;;;13.00;99.90;;;;;;5078593;28;20171;-82
2023/06/09 01:40:22;;;;;;;24.73;10.63;;;13.00;99.90;;;;;;5077566;28;20178;-82
2023/06/09 01:42:49;;;;;;;24.00;9.60;;;13.00;99.90;;;;;;5104401;27;20264;-81
2023/06/09 01:45:16;;;;;;;25.77;9.80;;;13.00;99.90;;;;;;5077417;28;20326;-82
2023/06/09 01:47:41;;;;;;;27.73;9.52;;;13.00;99.90;;;;;;5077326;28;20598;-82
2023/06/09 01:50:18;;;;;;;27.08;10.10;;;13.00;99.90;;;;;;5094176;28;20657;-83
2023/06/09 01:53:00;;;;;;;20.50;9.38;;;12.90;99.90;;;;;;5113326;28;20654;-81
2023/06/09 01:55:36;;;;;;;27.08;10.48;;;13.00;99.90;;;;;;5112492;28;20177;-81
2023/06/09 01:58:09;;;;;;;28.00;9.38;;;13.00;99.90;;;;;;5094336;28;20177;-81
2023/06/09 02:00:36;;;;;;;24.33;9.15;;;13.00;99.90;;;;;;5093919;28;20186;-81
2023/06/09 02:03:07;;;;;;;26.85;9.70;;;13.00;99.90;;;;;;5100380;28;20184;-82
2023/06/09 02:05:36;;;;;;;27.90;9.13;;;13.00;99.90;;;;;;5097255;28;20216;-82
2023/06/09 02:08:03;;;;;;;21.38;9.68;;;13.00;99.90;;;;;;5108612;28;20186;-82
2023/06/09 02:10:31;;;;;;;25.55;9.35;;;13.00;99.90;;;;;;5093907;28;20173;-82
2023/06/09 02:12:57;;;;;;;24.73;9.38;;;13.00;99.90;;;;;;5077378;28;20201;-83
2023/06/09 02:15:22;;;;;;;28.38;10.13;;;13.00;99.90;;;;;;5094112;28;20186;-83
2023/06/09 02:17:48;;;;;;;24.02;9.13;;;13.00;99.90;;;;;;5096867;28;20175;-82
2023/06/09 02:20:14;;;;;;;27.95;10.15;;;13.00;99.90;;;;;;5111661;28;20268;-82
2023/06/09 02:22:40;;;;;;;24.98;9.35;;;13.00;99.90;;;;;;5096669;28;20196;-83
2023/06/09 02:25:06;;;;;;;28.52;9.55;;;13.00;99.90;;;;;;5066130;28;20590;-83
2023/06/09 02:27:32;;;;;;;21.15;9.60;;;12.90;99.90;;;;;;5093114;28;20234;-84
2023/06/09 02:29:59;;;;;;;21.92;9.45;;;12.90;99.90;;;;;;5084249;28;20260;-83
2023/06/09 02:32:24;;;;;;;26.08;9.77;;;13.00;99.90;;;;;;5074345;28;20613;-83
2023/06/09 02:34:51;;;;;;;26.27;10.60;;;12.90;99.90;;;;;;5096605;28;20197;-82
2023/06/09 02:37:18;;;;;;;28.58;10.30;;;13.00;99.90;;;;;;5122867;27;20208;-83
2023/06/09 02:39:44;;;;;;;26.13;10.82;;;12.90;99.90;;;;;;5117322;27;20212;-82
2023/06/09 02:42:10;;;;;;;24.08;10.38;;;12.90;99.90;;;;;;5083278;27;20212;-84
2023/06/09 02:44:41;;;;;;;28.25;10.68;;;12.90;99.90;;;;;;5110634;27;20188;-82
2023/06/09 02:47:07;;;;;;;20.00;9.75;;;12.90;99.90;;;;;;5093356;28;20185;-83
2023/06/09 02:49:33;;;;;;;29.58;10.65;;;12.90;99.90;;;;;;5059592;28;20186;-82
2023/06/09 02:52:01;;;;;;;24.15;10.38;;;12.90;99.90;;;;;;5093882;28;20630;-83
2023/06/09 02:54:30;;;;;;;27.08;10.88;;;12.90;99.90;;;;;;5113554;28;20239;-82
2023/06/09 02:56:56;;;;;;;27.40;10.13;;;12.90;99.90;;;;;;5084413;28;20177;-82
2023/06/09 02:59:22;;;;;;;26.25;10.45;;;12.90;99.90;;;;;;5059914;28;20265;-83
2023/06/09 03:01:49;;;;;;;25.45;10.25;;;12.90;99.90;;;;;;5076274;28;20234;-82
2023/06/09 03:04:17;;;;;;;27.08;10.52;;;12.90;99.90;;;;;;5092792;28;20284;-82
2023/06/09 03:06:48;;;;;;;26.65;10.80;;;12.90;99.90;;;;;;5100955;28;20668;-82
2023/06/09 03:09:15;;;;;;;33.17;10.95;;;12.90;99.90;;;;;;5094027;28;20204;-82
2023/06/09 03:11:44;;;;;;;28.02;10.63;;;12.90;99.90;;;;;;5076314;28;20182;-82
2023/06/09 03:14:10;;;;;;;25.85;10.48;;;12.80;99.90;;;;;;5092674;28;20277;-82
2023/06/09 03:16:37;;;;;;;30.75;10.60;;;12.80;99.90;;;;;;5095420;28;20552;-82
2023/06/09 03:19:03;;;;;;;30.60;11.20;;;12.80;99.90;;;;;;5092762;28;20182;-82
2023/06/09 03:21:28;;;;;;;25.02;11.25;;;12.80;99.90;;;;;;5094254;28;20660;-82
2023/06/09 03:23:56;;;;;;;25.60;11.90;;;12.90;99.90;;;;;;5092322;28;20178;-82
2023/06/09 03:26:25;;;;;;;28.23;11.18;;;12.80;99.90;;;;;;5078681;28;20305;-82
2023/06/09 03:28:50;;;;;;;25.58;11.30;;;12.90;99.90;;;;;;5096815;28;20177;-81
2023/06/09 03:31:17;;;;;;;33.67;12.02;;;12.90;99.90;;;;;;5078731;28;20231;-84
2023/06/09 03:33:45;;;;;;;27.92;10.77;;;12.90;99.90;;;;;;5093363;28;20200;-84
2023/06/09 03:36:11;;;;;;;22.92;10.60;;;12.90;99.90;;;;;;5075553;28;20181;-84
2023/06/09 03:38:37;;;;;;;29.00;11.13;;;12.90;99.90;;;;;;5075623;28;20606;-84
2023/06/09 03:41:04;;;;;;;28.65;10.60;;;12.90;99.90;;;;;;5075144;28;20196;-84
2023/06/09 03:43:30;;;;;;;25.55;11.57;;;12.90;99.90;;;;;;5076853;28;20185;-83
2023/06/09 03:45:56;;;;;;;30.60;11.77;;;12.90;99.90;;;;;;5106250;28;20213;-83
2023/06/09 03:48:22;;;;;;;31.02;11.90;;;12.90;99.90;;;;;;5112587;28;20192;-84
2023/06/09 03:50:49;;;;;;;30.88;12.18;;;12.90;99.90;;;;;;5111921;28;20184;-84
2023/06/09 03:53:16;;;;;;;21.33;11.52;;;12.90;99.90;;;;;;5111953;28;20660;-83
2023/06/09 03:55:41;;;;;;;32.58;11.82;;;12.90;99.90;;;;;;5084158;28;20219;-83
2023/06/09 03:58:10;;;;;;;32.05;12.25;;;13.00;99.90;;;;;;5095742;28;20215;-82
2023/06/09 04:00:36;;;;;;;30.10;11.70;;;13.00;99.90;;;;;;5095829;28;20280;-83
2023/06/09 04:03:02;;;;;;;30.45;12.10;;;13.00;99.90;;;;;;5112524;28;20272;-82
2023/06/09 04:05:28;;;;;;;25.33;10.52;;;13.00;99.90;;;;;;5092810;28;20209;-83
2023/06/09 04:07:55;;;;;;;26.00;11.25;;;13.10;99.90;;;;;;5113521;28;20173;-83
2023/06/09 04:10:21;;;;;;;32.72;11.60;;;13.10;99.90;;;;;;5078153;28;20170;-82
2023/06/09 04:12:48;;;;;;;30.45;10.45;;;13.10;99.90;;;;;;5108722;28;20177;-84
2023/06/09 04:15:15;;;;;;;30.10;10.43;;;13.10;99.90;;;;;;5113706;27;20181;-83
2023/06/09 04:17:43;;;;;;;26.15;10.10;;;13.10;99.90;;;;;;5092034;28;20182;-82
2023/06/09 04:20:10;;;;;;;26.95;10.60;;;13.20;99.90;;;;;;5104698;28;20177;-83
2023/06/09 04:22:47;;;;;;;27.88;10.48;;;13.20;99.90;;;;;;5078359;28;20172;-82
2023/06/09 04:25:13;;;;;;;30.77;10.07;;;13.20;99.90;;;;;;5111085;28;20273;-83
2023/06/09 04:27:39;;;;;;;24.23;9.90;;;13.20;99.90;;;;;;5091745;28;20253;-83
2023/06/09 04:30:05;;;;;;;22.67;9.82;;;13.30;99.90;;;;;;5091600;28;20711;-84
2023/06/09 04:32:33;;;;;;;32.60;10.23;;;13.30;99.90;;;;;;5093130;28;20180;-84
2023/06/09 04:35:01;;;;;;;28.52;9.88;;;13.30;99.90;;;;;;5099685;28;20556;-83
2023/06/09 04:37:28;;;;;;;30.85;10.10;;;13.30;99.90;;;;;;5107244;28;20172;-84
2023/06/09 04:39:55;;;;;;;25.75;9.20;;;13.30;99.90;;;;;;5121603;28;20185;-83
2023/06/09 04:42:24;;;;;;;29.65;9.60;;;13.30;99.90;;;;;;5082811;28;20177;-83
2023/06/09 04:44:50;;;;;;;27.38;9.43;;;13.40;99.90;;;;;;5095613;28;20185;-83
2023/06/09 04:47:18;;;;;;;31.15;10.32;;;13.40;99.90;;;;;;5095766;28;20182;-83
2023/06/09 04:49:46;;;;;;;31.23;9.73;;;13.40;99.90;;;;;;5116166;28;20177;-84
2023/06/09 04:52:17;;;;;;;25.67;9.70;;;13.40;99.90;;;;;;5091348;28;20172;-83
2023/06/09 04:54:44;;;;;;;22.90;9.05;;;13.50;99.90;;;;;;5108326;28;20173;-82
2023/06/09 04:57:11;;;;;;;26.33;9.70;;;13.50;99.90;;;;;;5098917;28;20637;-83
2023/06/09 04:59:39;;;;;;;23.70;9.32;;;13.50;99.90;;;;;;5117409;28;20185;-82
2023/06/09 05:02:05;;;;;;;21.73;9.02;;;13.50;99.90;;;;;;5094414;28;20178;-84
2023/06/09 05:04:31;;;;;;;24.27;9.02;;;13.60;99.90;;;;;;5075021;28;20177;-82
2023/06/09 05:06:57;;;;;;;29.90;8.93;;;13.60;99.90;;;;;;5115619;28;20179;-84
2023/06/09 05:09:23;;;;;;;28.65;9.52;;;13.60;99.90;;;;;;5086856;28;20644;-83
2023/06/09 05:11:49;;;;;;;28.98;9.52;;;13.70;99.90;;;;;;5095392;28;20170;-83
2023/06/09 05:14:15;;;;;;;21.77;9.75;;;13.70;99.90;;;;;;5078192;28;20197;-83
2023/06/09 05:16:45;;;;;;;22.48;9.98;;;13.70;99.90;;;;;;5094897;28;20618;-82
2023/06/09 05:19:11;;;;;;;29.05;9.77;;;13.80;99.90;;;;;;5094945;28;20182;-84
2023/06/09 05:21:38;;;;;;;23.83;10.05;;;13.80;99.90;;;;;;5078689;28;20182;-83
2023/06/09 05:24:05;;;;;;;27.17;9.27;;;13.80;99.90;;;;;;5110799;28;20205;-82
2023/06/09 05:26:32;;;;;;;33.85;10.57;;;13.90;99.90;;;;;;5061077;28;20730;-83
2023/06/09 05:28:58;;;;;;;30.80;10.55;;;13.90;99.90;;;;;;5077669;28;20174;-83
2023/06/09 05:31:24;;;;;;;25.45;9.90;;;13.90;99.90;;;;;;5108070;28;20185;-84
2023/06/09 05:33:51;;;;;;;26.33;9.52;;;14.00;99.90;;;;;;5097970;28;20234;-84
2023/06/09 05:36:16;;;;;;;26.80;10.10;;;14.00;99.90;;;;;;5094314;28;20186;-84
2023/06/09 05:38:47;;;;;;;25.40;9.80;;;14.00;99.90;;;;;;5098482;28;20193;-88
2023/06/09 05:41:14;;;;;;;31.55;10.15;;;14.10;99.90;;;;;;5114940;28;20178;-82
2023/06/09 05:43:40;;;;;;;25.55;9.55;;;14.20;99.90;;;;;;5115750;28;20185;-90
2023/06/09 05:46:06;;;;;;;31.15;9.57;;;14.20;99.90;;;;;;5080803;28;20667;-83
2023/06/09 05:48:32;;;;;;;22.88;9.38;;;14.20;99.90;;;;;;5093848;28;20193;-82
2023/06/09 05:50:58;;;;;;;30.17;10.30;;;14.30;99.90;;;;;;5109028;28;20181;-86
2023/06/09 05:53:24;;;;;;;31.05;10.15;;;14.40;99.90;;;;;;5070344;28;20308;-84
2023/06/09 05:55:54;;;;;;;28.15;9.85;;;14.40;99.90;;;;;;5097410;28;20178;-83
2023/06/09 05:58:19;;;;;;;18.58;9.15;;;14.50;99.90;;;;;;5094302;28;20259;-84
2023/06/09 06:00:46;;;;;;;26.88;9.95;;;14.50;99.90;;;;;;5081991;28;20614;-88
2023/06/09 06:03:12;;;;;;;27.08;9.38;;;14.60;99.90;;;;;;5092776;28;20181;-83
2023/06/09 06:05:38;;;;;;;25.98;9.23;;;14.70;99.90;;;;;;5095118;28;20255;-82
2023/06/09 06:08:06;;;;;;;29.27;9.55;;;14.70;99.90;;;;;;5093130;28;20191;-83
2023/06/09 06:10:31;;;;;;;21.42;8.57;;;14.80;99.90;;;;;;5093064;28;20260;-89
2023/06/09 06:13:01;;;;;;;25.05;8.65;;;14.80;99.90;;;;;;5059742;28;20659;-82
2023/06/09 06:15:27;;;;;;;24.35;8.57;;;14.90;99.90;;;;;;5096286;28;20232;-81
2023/06/09 06:17:52;;;;;;;24.65;9.02;;;15.00;99.90;;;;;;5096763;28;20538;-85
2023/06/09 06:20:18;;;;;;;25.50;9.30;;;15.00;99.90;;;;;;5114072;28;20252;-85
2023/06/09 06:22:44;;;;;;;25.15;8.63;;;15.10;99.90;;;;;;5114037;28;20530;-88
2023/06/09 06:25:13;;;;;;;25.58;8.88;;;15.20;99.90;;;;;;5114233;28;20622;-82
2023/06/09 06:27:40;;;;;;;26.05;8.88;;;15.20;99.90;;;;;;5108940;28;20214;-83
2023/06/09 06:30:08;;;;;;;24.83;8.45;;;15.30;99.90;;;;;;5106672;28;20189;-82
2023/06/09 06:32:38;;;;;;;23.30;8.55;;;15.40;99.90;;;;;;5115495;28;20273;-81
2023/06/09 06:35:04;;;;;;;25.60;8.68;;;15.40;99.90;;;;;;5103805;28;20178;-84
2023/06/09 06:37:30;;;;;;;19.85;8.85;;;15.50;99.90;;;;;;5060410;28;20178;-82
2023/06/09 06:39:56;;;;;;;21.23;8.82;;;15.50;99.90;;;;;;5077586;28;20186;-82
2023/06/09 06:42:21;;;;;;;25.85;8.95;;;15.60;99.90;;;;;;5080751;28;20761;-82
2023/06/09 06:44:58;;;;;;;21.70;7.93;;;15.70;99.90;;;;;;5069730;28;20201;-82
2023/06/09 06:47:24;;;;;;;23.80;9.13;;;15.80;99.90;;;;;;5059776;28;20178;-82
2023/06/09 06:49:50;;;;;;;27.60;8.70;;;15.90;99.90;;;;;;5093329;28;20177;-82
2023/06/09 06:52:15;;;;;;;26.00;8.35;;;15.90;99.90;;;;;;5113965;27;20177;-82
2023/06/09 06:54:41;;;;;;;23.38;8.43;;;16.00;99.90;;;;;;5079316;28;20181;-82
2023/06/09 06:57:07;;;;;;;25.33;8.93;;;16.10;99.90;;;;;;5105571;28;20185;-82
2023/06/09 06:59:33;;;;;;;25.00;8.27;;;16.10;99.90;;;;;;5042927;28;20239;-83
2023/06/09 07:01:59;;;;;;;22.83;8.38;;;16.20;99.90;;;;;;5092645;28;20186;-82
2023/06/09 07:04:24;;;;;;;24.63;9.02;;;16.30;99.90;;;;;;5092169;28;20606;-82
2023/06/09 07:06:51;;;;;;;23.65;8.68;;;16.30;99.90;;;;;;5108761;27;20291;-83
2023/06/09 07:09:16;;;;;;;23.92;8.40;;;16.40;99.90;;;;;;5113761;28;20237;-82
2023/06/09 07:11:44;;;;;;;16.80;8.15;;;16.50;99.90;;;;;;5096178;28;20190;-82
2023/06/09 07:14:09;;;;;;;26.48;9.30;;;16.60;99.90;;;;;;5114570;28;20185;-83
2023/06/09 07:16:35;;;;;;;18.13;8.70;;;16.70;99.90;;;;;;5114264;28;20238;-82
2023/06/09 07:19:01;;;;;;;24.13;8.68;;;16.80;99.90;;;;;;5104246;28;20186;-82
2023/06/09 07:21:31;;;;;;;27.67;8.32;;;16.90;99.90;;;;;;5099968;28;20276;-82
2023/06/09 07:23:58;;;;;;;17.35;7.22;;;17.00;99.90;;;;;;5112161;28;20166;-90
2023/06/09 07:26:25;;;;;;;22.77;7.95;;;17.20;99.90;;;;;;5092089;28;20648;-82
2023/06/09 07:28:50;;;;;;;22.45;8.38;;;17.30;99.90;;;;;;5051621;28;20190;-83
2023/06/09 07:31:16;;;;;;;25.40;8.63;;;17.50;99.90;;;;;;5097556;28;20189;-83
2023/06/09 07:33:42;;;;;;;19.48;7.55;;;17.50;99.90;;;;;;5096414;28;20696;-84
2023/06/09 07:36:11;;;;;;;22.40;8.23;;;17.60;99.90;;;;;;5094622;28;20192;-84
2023/06/09 07:38:44;;;;;;;23.48;8.07;;;17.70;99.90;;;;;;5095456;28;20204;-83
2023/06/09 07:41:10;;;;;;;20.85;7.90;;;17.80;99.90;;;;;;5093644;28;20205;-82
2023/06/09 07:43:35;;;;;;;21.00;7.60;;;18.00;99.90;;;;;;5091394;28;20174;-83
2023/06/09 07:46:01;;;;;;;20.00;7.55;;;18.10;99.90;;;;;;5098246;28;20201;-82
2023/06/09 07:48:27;;;;;;;19.45;7.75;;;18.20;99.90;;;;;;5093640;28;20181;-83
2023/06/09 07:50:53;;;;;;;18.73;7.82;;;18.30;99.90;;;;;;5104340;28;20288;-82
2023/06/09 07:53:21;;;;;;;23.20;7.82;;;18.40;99.90;;;;;;5093589;28;20199;-84
2023/06/09 07:55:47;;;;;;;20.98;6.95;;;18.50;99.90;;;;;;5095007;28;20188;-82
2023/06/09 07:58:13;;;;;;;13.02;6.72;;;18.60;99.90;;;;;;5092417;28;20246;-82
2023/06/09 08:00:38;;;;;;;23.67;7.25;;;18.70;99.90;;;;;;5091162;28;20592;-82
2023/06/09 08:03:04;;;;;;;19.73;7.20;;;18.80;99.90;;;;;;5075761;28;20182;-82
2023/06/09 08:05:30;;;;;;;13.13;6.00;;;18.90;99.90;;;;;;5096723;28;20197;-80
2023/06/09 08:07:57;;;;;;;15.48;6.28;;;19.00;99.90;;;;;;5108107;28;20178;-82
2023/06/09 08:10:23;;;;;;;21.70;7.28;;;19.10;99.90;;;;;;5099110;28;20189;-81
2023/06/09 08:12:52;;;;;;;19.55;6.80;;;19.30;99.90;;;;;;5090804;28;20213;-83
2023/06/09 08:15:18;;;;;;;18.65;6.45;;;19.40;99.90;;;;;;5087743;28;20186;-83
2023/06/09 08:17:44;;;;;;;15.23;6.90;;;19.60;99.90;;;;;;5090524;28;20186;-82
2023/06/09 08:20:10;;;;;;;20.02;7.15;;;19.70;99.90;;;;;;5090608;28;20178;-82
2023/06/09 08:22:36;;;;;;;16.40;7.05;;;19.80;99.90;;;;;;5092158;28;20213;-82
2023/06/09 08:25:03;;;;;;;18.52;7.28;;;19.90;99.90;;;;;;5073837;28;20252;-82
2023/06/09 08:27:30;;;;;;;22.33;7.35;;;19.90;99.90;;;;;;5095213;28;20233;-82
2023/06/09 08:29:56;;;;;;;19.13;7.28;;;20.10;99.90;;;;;;5074307;28;20181;-83
2023/06/09 08:32:22;;;;;;;17.40;6.97;;;20.20;99.90;;;;;;5058430;28;20648;-83
2023/06/09 08:34:47;;;;;;;17.27;6.93;;;20.30;99.90;;;;;;5101113;28;20186;-85
2023/06/09 08:37:15;;;;;;;16.80;5.88;;;20.40;99.90;;;;;;5074325;28;20192;-83
2023/06/09 08:39:40;;;;;;;14.43;6.32;;;20.50;99.90;;;;;;5073940;28;20493;-83
2023/06/09 08:42:25;;;;;;;19.65;6.70;;;20.60;99.90;;;;;;5091443;28;20281;-82
2023/06/09 08:45:04;;;;;;;16.27;6.03;;;20.70;99.90;;;;;;5090780;28;20187;-83
2023/06/09 08:47:31;;;;;;;19.15;7.45;;;20.80;99.90;;;;;;5091222;28;20644;-85
2023/06/09 08:49:59;;;;;;;19.90;6.45;;;20.90;99.90;;;;;;5062081;28;20224;-82
2023/06/09 08:52:27;;;;;;;15.60;6.15;;;21.00;99.90;;;;;;5098620;28;20268;-82
2023/06/09 08:54:56;;;;;;;15.93;6.50;;;21.00;99.90;;;;;;5111850;28;20192;-83
2023/06/09 08:57:22;;;;;;;14.98;6.38;;;21.10;99.90;;;;;;5071955;28;20276;-82
2023/06/09 08:59:48;;;;;;;15.90;6.35;;;21.30;99.90;;;;;;5092047;28;20209;-82
2023/06/09 09:02:14;;;;;;;18.27;6.68;;;21.40;99.90;;;;;;5091849;28;20189;-82
2023/06/09 09:04:40;;;;;;;16.27;6.28;;;21.40;99.90;;;;;;5092214;28;20203;-82
2023/06/09 09:07:08;;;;;;;13.15;6.25;;;21.50;99.90;;;;;;5092724;28;20213;-82
2023/06/09 09:09:33;;;;;;;15.25;6.57;;;21.60;99.90;;;;;;5092973;28;20202;-83
2023/06/09 09:12:01;;;;;;;15.00;6.22;;;21.70;99.90;;;;;;5093626;28;20178;-82
2023/06/09 09:14:27;;;;;;;15.30;6.45;;;21.80;99.90;;;;;;5076430;28;20178;-82
2023/06/09 09:16:54;;;;;;;13.57;6.22;;;21.90;99.90;;;;;;5102620;28;20546;-81
2023/06/09 09:19:30;;;;;;;15.95;6.22;;;22.00;99.90;;;;;;5091191;28;20178;-82
2023/06/09 09:21:56;;;;;;;14.35;6.50;;;22.10;99.90;;;;;;5090984;28;20170;-82
2023/06/09 09:24:29;;;;;;;13.82;6.25;;;22.20;99.90;;;;;;5090696;28;20197;-82
2023/06/09 09:26:56;;;;;;;17.80;6.78;;;22.20;99.90;;;;;;5092156;28;20721;-81
2023/06/09 09:29:26;;;;;;;11.00;5.75;;;22.30;99.90;;;;;;5114090;28;20185;-82
2023/06/09 09:31:58;;;;;;;18.35;6.25;;;22.40;99.90;;;;;;5105574;28;20231;-82
2023/06/09 09:34:25;;;;;;;18.05;6.07;;;22.60;99.90;;;;;;5094705;28;20643;-83
2023/06/09 09:36:55;;;;;;;13.77;6.35;;;22.70;99.90;;;;;;5110088;28;20288;-83
2023/06/09 09:39:21;;;;;;;14.20;6.15;;;22.80;99.90;;;;;;5114483;28;20248;-82
2023/06/09 09:42:10;;;;;;;14.93;6.47;;;22.90;99.90;;;;;;5111109;28;20192;-82
2023/06/09 09:44:46;;;;;;;11.95;5.72;;;22.90;99.90;;;;;;5104802;28;20188;-82
2023/06/09 09:47:15;;;;;;;12.23;5.63;;;23.00;99.90;;;;;;5083681;28;20197;-83
2023/06/09 09:49:58;;;;;;;16.67;6.72;;;23.10;99.90;;;;;;5095693;28;20182;-82
2023/06/09 09:52:34;;;;;;;19.17;6.28;;;23.30;99.90;;;;;;5099370;27;20197;-83
2023/06/09 09:55:04;;;;;;;13.70;5.60;;;23.40;99.90;;;;;;5114983;28;20183;-82
2023/06/09 09:57:31;;;;;;;19.35;6.35;;;23.60;99.80;;;;;;5114143;28;20196;-82
2023/06/09 10:00:05;;;;;;;16.15;5.80;;;23.80;99.40;;;;;;5094308;28;20178;-82
2023/06/09 10:02:42;;;;;;;13.90;5.43;;;23.90;98.90;;;;;;5095317;28;21570;-83
2023/06/09 10:05:10;;;;;;;10.65;5.75;;;24.00;98.30;;;;;;5077444;28;20206;-83
2023/06/09 10:07:39;;;;;;;16.17;5.70;;;24.00;97.70;;;;;;5112807;27;20230;-82
2023/06/09 10:10:08;;;;;;;13.82;6.38;;;24.10;97.30;;;;;;5134617;27;20192;-82
2023/06/09 10:12:37;;;;;;;13.10;5.28;;;24.20;96.60;;;;;;5117410;27;20487;-82
2023/06/09 10:15:05;;;;;;;13.98;5.03;;;24.30;96.20;;;;;;5107339;27;20195;-82
2023/06/09 10:17:32;;;;;;;16.90;5.88;;;24.40;95.80;;;;;;5113572;28;20268;-83
2023/06/09 10:19:58;;;;;;;15.40;6.30;;;24.50;95.50;;;;;;5096910;28;20522;-82
2023/06/09 10:22:24;;;;;;;12.63;5.47;;;24.50;95.30;;;;;;5113656;28;20185;-82
2023/06/09 10:24:51;;;;;;;11.75;5.35;;;24.60;95.00;;;;;;5092893;28;20264;-82
2023/06/09 10:27:17;;;;;;;12.35;5.30;;;24.80;94.70;;;;;;5076296;28;20705;-82
2023/06/09 10:29:45;;;;;;;10.82;5.68;;;24.80;94.50;;;;;;5076730;28;20185;-82
2023/06/09 10:32:13;;;;;;;13.40;5.85;;;24.90;94.20;;;;;;5102650;28;20189;-82
2023/06/09 10:34:46;;;;;;;12.02;5.32;;;24.90;93.90;;;;;;5112414;28;20180;-82
2023/06/09 10:37:12;;;;;;;17.10;6.65;;;24.90;93.70;;;;;;5113603;28;20192;-81
2023/06/09 10:40:01;;;;;;;18.92;9.07;;;25.00;93.70;;;;;;5079404;28;20177;-81
2023/06/09 10:42:37;;;;;;;13.45;6.05;;;25.00;93.60;;;;;;5114480;28;20189;-81
2023/06/09 10:45:11;;;;;;;12.13;5.38;;;25.20;93.60;;;;;;5111904;28;20605;-81
2023/06/09 10:47:46;;;;;;;15.77;8.60;;;25.30;93.40;;;;;;5112702;28;20249;-82
2023/06/09 10:50:26;;;;;;;11.80;6.32;;;25.40;93.20;;;;;;5093687;28;20182;-82
2023/06/09 10:52:57;;;;;;;14.70;6.30;;;25.60;93.20;;;;;;5093518;28;20602;-82
2023/06/09 10:55:27;;;;;;;12.77;5.72;;;25.70;93.00;;;;;;5092801;28;20177;-83
2023/06/09 10:57:55;;;;;;;11.38;5.65;;;25.70;92.70;;;;;;5093165;28;20177;-82
2023/06/09 11:00:21;;;;;;;13.55;5.70;;;25.80;92.50;;;;;;5075891;28;20218;-83
2023/06/09 11:02:52;;;;;;;12.68;6.28;;;25.90;92.40;;;;;;5075670;28;20648;-82
2023/06/09 11:05:20;;;;;;;15.30;5.70;;;26.00;92.10;;;;;;5094086;28;20218;-82
2023/06/09 11:07:51;;;;;;;11.30;6.07;;;26.10;92.00;;;;;;5092080;28;20208;-82
2023/06/09 11:10:17;;;;;;;18.88;5.38;;;26.10;91.90;;;;;;5075391;28;20182;-81
2023/06/09 11:12:45;;;;;;;14.90;5.28;;;26.20;91.50;;;;;;5093409;28;20472;-81
2023/06/09 11:15:11;;;;;;;9.77;5.63;;;26.30;91.30;;;;;;5075221;28;20186;-83
2023/06/09 11:17:41;;;;;;;11.55;5.38;;;26.40;91.00;;;;;;5085928;28;20186;-81
2023/06/09 11:20:10;;;;;;;16.80;8.60;;;26.40;90.70;;;;;;5092018;28;20194;-81
2023/06/09 11:22:41;;;;;;;10.45;5.18;;;26.50;90.40;;;;;;5075829;28;20185;-82
2023/06/09 11:25:19;;;;;;;13.30;5.00;;;26.60;90.00;;;;;;5090982;28;20228;-83
2023/06/09 11:27:54;;;;;;;11.40;4.90;;;26.60;88.90;;;;;;5075296;28;20254;-83
2023/06/09 11:30:23;;;;;;;10.32;5.35;;;26.60;88.50;;;;;;5092857;28;20185;-82
2023/06/09 11:33:02;;;;;;;11.40;5.10;;;26.70;88.10;;;;;;5093109;28;20224;-84
2023/06/09 11:35:30;;;;;;;10.15;5.05;;;26.70;86.90;;;;;;5103270;28;20192;-82
2023/06/09 11:37:59;;;;;;;10.70;5.15;;;26.60;85.70;;;;;;5092693;28;20178;-83
2023/06/09 11:40:26;;;;;;;8.93;4.78;;;26.70;85.50;;;;;;5083408;28;20190;-82
2023/06/09 11:42:52;;;;;;;12.38;5.20;;;26.80;85.30;;;;;;5093135;28;20200;-83
2023/06/09 11:45:18;;;;;;;13.95;5.10;;;26.90;84.20;;;;;;5102899;28;20237;-82
2023/06/09 11:47:45;;;;;;;8.65;5.03;;;26.80;83.40;;;;;;5111742;28;20177;-81
2023/06/09 11:50:16;;;;;;;11.60;5.32;;;26.90;82.90;;;;;;5094718;28;20659;-82
2023/06/09 11:52:43;;;;;;;12.90;5.10;;;26.90;82.40;;;;;;5111369;28;20173;-81
2023/06/09 11:55:11;;;;;;;10.95;4.80;;;26.90;81.90;;;;;;5109396;28;20187;-83
2023/06/09 11:57:37;;;;;;;9.70;5.07;;;27.00;81.30;;;;;;5098199;28;20732;-81
2023/06/09 12:00:08;;;;;;;12.85;5.30;;;27.00;81.00;;;;;;5087790;28;20268;-82
2023/06/09 12:02:42;;;;;;;10.45;5.15;;;27.10;80.40;;;;;;5095319;28;20226;-82
2023/06/09 12:05:14;;;;;;;12.77;5.40;;;27.20;79.80;;;;;;5078169;28;20280;-82
2023/06/09 12:07:47;;;;;;;11.40;4.93;;;27.20;79.40;;;;;;5091842;28;20169;-82
2023/06/09 12:10:17;;;;;;;8.13;5.13;;;27.30;78.80;;;;;;5092475;28;20212;-82
2023/06/09 12:12:45;;;;;;;9.98;4.82;;;27.30;77.50;;;;;;5074591;28;20246;-82
2023/06/09 12:15:11;;;;;;;13.93;5.15;;;27.40;77.40;;;;;;5114068;27;20257;-82
2023/06/09 12:17:37;;;;;;;11.05;5.32;;;27.50;76.40;;;;;;5093182;28;20189;-81
2023/06/09 12:20:28;;;;;;;11.68;5.07;;;27.50;75.60;;;;;;5091391;28;20227;-82
2023/06/09 12:23:03;;;;;;;14.98;7.63;;;27.50;74.90;;;;;;5091258;28;20209;-82
2023/06/09 12:25:30;;;;;;;12.23;5.60;;;27.60;74.30;;;;;;5092428;28;20281;-81
2023/06/09 12:28:35;;;;;;;9.48;5.47;;;27.60;73.70;;;;;;5090522;28;20638;-82
2023/06/09 12:31:10;;;;;;;11.50;5.28;;;27.60;72.50;;;;;;5091714;28;20181;-82
2023/06/09 12:33:37;;;;;;;12.55;5.47;;;27.60;72.50;;;;;;5095200;28;20175;-84
2023/06/09 12:36:07;;;;;;;12.77;5.40;;;27.60;72.30;;;;;;5105552;28;20177;-82
2023/06/09 12:38:38;;;;;;;11.75;5.50;;;27.70;71.30;;;;;;5086707;28;20641;-82
2023/06/09 12:41:09;;;;;;;15.52;8.15;;;27.60;70.50;;;;;;5112294;28;20169;-82